createdAt,value
2023-01-01T00:04:49.645Z,99.90
2023-01-01T00:07:19.399Z,99.90
2023-01-01T00:12:44.025Z,99.90
2023-01-01T00:15:11.443Z,99.90
2023-01-01T00:17:39.758Z,99.90
2023-01-01T00:25:22.948Z,99.90
2023-01-01T00:27:50.026Z,99.90
2023-01-01T00:30:17.112Z,99.90
2023-01-01T00:32:55.298Z,99.90
2023-01-01T00:35:25.679Z,99.90
2023-01-01T00:37:53.898Z,99.90
2023-01-01T00:40:27.934Z,99.90
2023-01-01T00:42:57.313Z,99.90
2023-01-01T00:50:23.738Z,99.90
2023-01-01T00:55:18.820Z,99.90
2023-01-01T00:57:45.839Z,99.90
2023-01-01T01:00:13.560Z,99.90
2023-01-01T01:05:11.646Z,99.90
2023-01-01T01:07:39.700Z,99.90
2023-01-01T01:10:12.204Z,99.90
2023-01-01T01:15:09.485Z,99.90
2023-01-01T01:17:36.911Z,99.90
2023-01-01T01:20:05.409Z,99.90
2023-01-01T01:22:35.975Z,99.90
2023-01-01T01:25:03.243Z,99.90
2023-01-01T01:37:24.038Z,99.90
2023-01-01T01:39:54.033Z,99.90
2023-01-01T01:42:22.220Z,99.90
2023-01-01T01:44:54.980Z,99.90
2023-01-01T01:47:31.460Z,99.90
2023-01-01T01:50:11.386Z,99.90
2023-01-01T01:52:48.498Z,99.90
2023-01-01T01:55:16.966Z,99.90
2023-01-01T01:57:46.172Z,99.60
2023-01-01T02:00:16.891Z,98.60
2023-01-01T02:02:52.134Z,97.20
2023-01-01T02:05:20.939Z,97.70
2023-01-01T02:07:52.301Z,98.30
2023-01-01T02:12:51.200Z,99.90
2023-01-01T02:15:19.389Z,99.90
2023-01-01T02:18:10.960Z,99.90
2023-01-01T02:20:48.409Z,99.20
2023-01-01T02:23:34.040Z,99.70
2023-01-01T02:26:39.102Z,99.90
2023-01-01T02:29:25.139Z,98.80
2023-01-01T02:32:00.785Z,99.80
2023-01-01T02:34:33.746Z,99.90
2023-01-01T02:37:08.063Z,99.90
2023-01-01T02:39:44.302Z,99.90
2023-01-01T02:42:12.153Z,99.90
2023-01-01T02:44:42.651Z,99.90
2023-01-01T02:47:13.299Z,99.90
2023-01-01T02:49:48.590Z,99.90
2023-01-01T02:52:31.853Z,99.90
2023-01-01T02:55:16.534Z,99.90
2023-01-01T02:57:59.643Z,99.90
2023-01-01T03:00:31.481Z,99.90
2023-01-01T03:03:22.131Z,99.90
2023-01-01T03:06:10.865Z,99.90
2023-01-01T03:08:52.967Z,99.90
2023-01-01T03:11:22.185Z,99.90
2023-01-01T03:14:06.858Z,99.90
2023-01-01T03:16:47.643Z,99.90
2023-01-01T03:19:24.592Z,99.90
2023-01-01T03:22:13.898Z,99.90
2023-01-01T03:24:44.721Z,99.90
2023-01-01T03:27:23.642Z,99.90
2023-01-01T03:29:53.554Z,99.90
2023-01-01T03:32:52.313Z,99.90
2023-01-01T03:35:21.683Z,99.90
2023-01-01T03:37:52.958Z,99.90
2023-01-01T03:40:22.019Z,99.90
2023-01-01T03:43:00.397Z,99.90
2023-01-01T03:45:37.644Z,99.90
2023-01-01T03:48:06.270Z,99.90
2023-01-01T03:50:40.687Z,99.90
2023-01-01T03:53:16.072Z,99.90
2023-01-01T03:55:53.569Z,99.90
2023-01-01T03:58:40.227Z,99.90
2023-01-01T04:01:26.210Z,99.90
2023-01-01T04:03:53.922Z,99.90
2023-01-01T04:06:22.163Z,99.90
2023-01-01T04:08:53.871Z,99.90
2023-01-01T04:11:43.766Z,99.90
2023-01-01T04:14:11.077Z,99.90
2023-01-01T04:16:38.577Z,99.90
2023-01-01T04:21:36.272Z,99.90
2023-01-01T04:24:03.484Z,99.90
2023-01-01T04:26:30.503Z,99.90
2023-01-01T04:28:57.420Z,99.90
2023-01-01T04:31:24.851Z,99.90
2023-01-01T04:33:54.272Z,99.90
2023-01-01T04:36:22.042Z,99.90
2023-01-01T04:38:48.962Z,99.90
2023-01-01T04:41:16.065Z,99.90
2023-01-01T04:43:49.775Z,99.90
2023-01-01T04:46:23.949Z,99.90
2023-01-01T04:48:51.500Z,99.90
2023-01-01T04:51:20.481Z,99.90
2023-01-01T04:53:47.755Z,99.90
2023-01-01T04:56:18.646Z,99.90
2023-01-01T04:58:46.874Z,99.90
2023-01-01T05:01:43.446Z,99.90
2023-01-01T05:04:14.041Z,99.90
2023-01-01T05:06:41.073Z,99.90
2023-01-01T05:09:10.294Z,99.90
2023-01-01T05:11:37.577Z,99.90
2023-01-01T05:14:07.731Z,99.90
2023-01-01T05:16:37.592Z,99.90
2023-01-01T05:19:05.709Z,99.90
2023-01-01T05:21:36.581Z,99.90
2023-01-01T05:24:06.670Z,99.90
2023-01-01T05:26:36.633Z,99.90
2023-01-01T05:29:04.162Z,99.90
2023-01-01T05:31:35.216Z,99.90
2023-01-01T05:36:34.531Z,99.90
2023-01-01T05:39:01.561Z,99.90
2023-01-01T05:46:25.739Z,99.90
2023-01-01T05:48:53.540Z,99.90
2023-01-01T05:51:23.066Z,99.90
2023-01-01T05:53:51.157Z,99.90
2023-01-01T05:56:18.592Z,99.90
2023-01-01T05:58:46.750Z,99.90
2023-01-01T06:01:21.232Z,99.90
2023-01-01T06:03:49.005Z,99.90
2023-01-01T06:06:22.570Z,99.90
2023-01-01T06:08:57.274Z,99.90
2023-01-01T06:13:58.295Z,99.90
2023-01-01T06:16:27.067Z,99.90
2023-01-01T06:18:54.446Z,99.90
2023-01-01T06:21:24.103Z,99.90
2023-01-01T06:23:51.471Z,99.90
2023-01-01T06:26:30.016Z,99.90
2023-01-01T06:29:01.473Z,99.90
2023-01-01T06:31:32.920Z,99.90
2023-01-01T06:34:02.560Z,99.90
2023-01-01T06:36:29.464Z,99.90
2023-01-01T06:38:58.780Z,99.90
2023-01-01T06:41:28.072Z,99.90
2023-01-01T06:43:56.456Z,99.90
2023-01-01T06:46:32.091Z,99.90
2023-01-01T06:49:04.073Z,99.90
2023-01-01T06:51:38.580Z,99.90
2023-01-01T06:54:06.167Z,99.90
2023-01-01T06:56:33.742Z,99.90
2023-01-01T07:01:31.675Z,99.90
2023-01-01T07:04:05.247Z,99.90
2023-01-01T07:06:33.422Z,99.90
2023-01-01T07:16:23.954Z,99.90
2023-01-01T07:18:51.671Z,99.90
2023-01-01T07:21:43.612Z,99.90
2023-01-01T07:24:13.059Z,99.90
2023-01-01T07:26:41.178Z,99.90
2023-01-01T07:29:08.958Z,99.90
2023-01-01T07:31:40.726Z,99.90
2023-01-01T07:34:14.045Z,99.90
2023-01-01T07:39:09.363Z,99.90
2023-01-01T07:44:05.242Z,99.90
2023-01-01T07:46:35.975Z,99.90
2023-01-01T07:49:04.071Z,99.90
2023-01-01T07:51:31.180Z,99.90
2023-01-01T07:54:05.665Z,99.90
2023-01-01T07:56:36.158Z,99.90
2023-01-01T08:01:30.608Z,99.90
2023-01-01T08:03:57.883Z,99.90
2023-01-01T08:13:52.042Z,99.90
2023-01-01T08:16:20.184Z,99.90
2023-01-01T08:18:50.237Z,99.90
2023-01-01T08:21:17.193Z,99.90
2023-01-01T08:23:45.197Z,99.90
2023-01-01T08:26:17.331Z,99.90
2023-01-01T08:33:39.308Z,99.90
2023-01-01T08:36:06.746Z,99.90
2023-01-01T08:38:33.737Z,99.90
2023-01-01T08:41:00.770Z,99.90
2023-01-01T08:43:33.822Z,99.90
2023-01-01T08:48:30.933Z,99.90
2023-01-01T08:51:03.012Z,99.90
2023-01-01T08:53:31.928Z,99.90
2023-01-01T08:56:05.602Z,99.90
2023-01-01T08:58:35.082Z,99.90
2023-01-01T09:01:03.754Z,99.90
2023-01-01T09:03:31.070Z,99.90
2023-01-01T09:05:58.202Z,99.90
2023-01-01T09:08:25.631Z,99.90
2023-01-01T09:10:53.156Z,99.90
2023-01-01T09:13:22.710Z,99.90
2023-01-01T09:15:52.340Z,99.90
2023-01-01T09:18:22.066Z,99.90
2023-01-01T09:20:49.282Z,99.90
2023-01-01T09:23:16.326Z,99.90
2023-01-01T09:28:14.486Z,99.90
2023-01-01T09:33:09.077Z,99.90
2023-01-01T09:41:00.383Z,99.90
2023-01-01T09:43:40.957Z,99.90
2023-01-01T09:46:08.977Z,99.90
2023-01-01T09:48:40.550Z,99.90
2023-01-01T09:51:15.635Z,99.90
2023-01-01T09:53:54.575Z,99.90
2023-01-01T09:56:28.979Z,99.90
2023-01-01T09:58:59.227Z,99.90
2023-01-01T10:01:53.496Z,99.90
2023-01-01T10:04:35.592Z,99.80
2023-01-01T10:07:15.089Z,99.90
2023-01-01T10:10:06.363Z,98.30
2023-01-01T10:12:42.215Z,97.80
2023-01-01T10:15:18.657Z,99.90
2023-01-01T10:17:48.648Z,99.90
2023-01-01T10:20:27.245Z,98.50
2023-01-01T10:22:59.836Z,98.20
2023-01-01T10:25:29.503Z,99.80
2023-01-01T10:28:04.951Z,99.90
2023-01-01T10:30:32.719Z,99.90
2023-01-01T10:33:00.286Z,99.90
2023-01-01T10:35:39.858Z,99.90
2023-01-01T10:38:08.060Z,97.20
2023-01-01T10:40:35.079Z,97.90
2023-01-01T10:43:04.185Z,98.20
2023-01-01T10:45:49.005Z,98.50
2023-01-01T10:48:22.192Z,97.20
2023-01-01T10:50:53.541Z,96.60
2023-01-01T10:53:29.469Z,96.90
2023-01-01T10:56:00.983Z,96.20
2023-01-01T10:58:27.830Z,96.40
2023-01-01T11:00:59.622Z,95.60
2023-01-01T11:06:07.101Z,93.80
2023-01-01T11:08:37.640Z,92.20
2023-01-01T11:11:04.947Z,92.40
2023-01-01T11:13:33.426Z,92.80
2023-01-01T11:16:00.999Z,90.80
2023-01-01T11:18:35.872Z,88.30
2023-01-01T11:21:05.939Z,87.90
2023-01-01T11:23:34.354Z,87.10
2023-01-01T11:26:09.741Z,86.30
2023-01-01T11:28:36.880Z,88.60
2023-01-01T11:31:18.924Z,88.50
2023-01-01T11:33:54.395Z,86.00
2023-01-01T11:36:25.742Z,87.30
2023-01-01T11:39:19.793Z,87.70
2023-01-01T11:41:51.787Z,86.60
2023-01-01T11:44:37.563Z,84.30
2023-01-01T11:47:06.620Z,83.70
2023-01-01T11:49:34.530Z,85.30
2023-01-01T11:52:21.845Z,85.60
2023-01-01T11:57:22.077Z,83.50
2023-01-01T11:59:55.952Z,82.00
2023-01-01T12:02:50.781Z,84.00
2023-01-01T12:05:24.206Z,81.70
2023-01-01T12:07:52.657Z,81.40
2023-01-01T12:10:24.770Z,81.80
2023-01-01T12:13:01.365Z,78.80
2023-01-01T12:16:01.403Z,79.50
2023-01-01T12:18:42.555Z,80.00
2023-01-01T12:21:28.830Z,82.80
2023-01-01T12:23:56.214Z,81.70
2023-01-01T12:27:05.254Z,81.20
2023-01-01T12:29:42.023Z,82.50
2023-01-01T12:32:20.699Z,82.30
2023-01-01T12:35:06.416Z,81.60
2023-01-01T12:38:09.335Z,81.90
2023-01-01T12:40:58.495Z,82.90
2023-01-01T12:43:40.943Z,83.30
2023-01-01T12:46:55.623Z,81.80
2023-01-01T12:49:49.873Z,84.80
2023-01-01T12:52:42.259Z,84.90
2023-01-01T12:55:42.947Z,87.50
2023-01-01T12:58:16.804Z,84.20
2023-01-01T13:00:48.291Z,83.00
2023-01-01T13:03:26.885Z,84.00
2023-01-01T13:05:56.725Z,85.80
2023-01-01T13:08:24.026Z,85.00
2023-01-01T13:10:54.778Z,86.80
2023-01-01T13:13:26.297Z,83.10
2023-01-01T13:15:56.249Z,80.50
2023-01-01T13:18:26.581Z,83.00
2023-01-01T13:23:36.015Z,82.10
2023-01-01T13:26:18.202Z,83.30
2023-01-01T13:28:59.705Z,84.40
2023-01-01T13:31:39.501Z,87.60
2023-01-01T13:34:31.904Z,87.10
2023-01-01T13:37:14.665Z,88.20
2023-01-01T13:39:56.128Z,88.10
2023-01-01T13:42:59.083Z,87.50
2023-01-01T13:48:57.520Z,91.70
2023-01-01T13:54:46.884Z,91.00
2023-01-01T13:57:41.616Z,91.70
2023-01-01T14:00:21.421Z,91.50
2023-01-01T14:03:06.908Z,90.60
2023-01-01T14:05:38.156Z,92.60
2023-01-01T14:08:36.722Z,94.50
2023-01-01T14:11:19.730Z,95.90
2023-01-01T14:16:19.594Z,94.90
2023-01-01T14:18:59.714Z,94.40
2023-01-01T14:21:31.881Z,95.60
2023-01-01T14:26:28.234Z,95.40
2023-01-01T14:28:57.434Z,99.40
2023-01-01T14:31:34.843Z,98.20
2023-01-01T14:34:29.991Z,99.00
2023-01-01T14:36:59.457Z,98.90
2023-01-01T14:39:30.040Z,99.70
2023-01-01T14:42:11.768Z,99.90
2023-01-01T14:44:42.288Z,99.90
2023-01-01T14:47:33.914Z,99.90
2023-01-01T14:50:12.186Z,99.90
2023-01-01T14:52:40.057Z,99.90
2023-01-01T14:55:08.377Z,99.90
2023-01-01T14:57:37.178Z,99.90
2023-01-01T15:00:22.242Z,99.90
2023-01-01T15:02:51.544Z,99.90
2023-01-01T15:05:35.689Z,99.90
2023-01-01T15:08:19.565Z,99.90
2023-01-01T15:13:23.426Z,99.90
2023-01-01T15:15:56.262Z,99.90
2023-01-01T15:18:45.916Z,99.90
2023-01-01T15:21:38.644Z,99.90
2023-01-01T15:24:15.861Z,99.90
2023-01-01T15:26:49.800Z,99.90
2023-01-01T15:29:26.159Z,99.90
2023-01-01T15:32:00.788Z,99.90
2023-01-01T15:35:06.534Z,99.90
2023-01-01T15:37:51.311Z,99.90
2023-01-01T15:40:18.609Z,99.90
2023-01-01T15:42:57.012Z,99.90
2023-01-01T15:45:32.565Z,99.90
2023-01-01T15:48:05.741Z,99.90
2023-01-01T15:50:43.981Z,99.90
2023-01-01T15:55:46.769Z,99.90
2023-01-01T15:58:41.005Z,99.90
2023-01-01T16:01:14.265Z,99.90
2023-01-01T16:04:13.798Z,99.90
2023-01-01T16:06:57.373Z,99.90
2023-01-01T16:09:24.799Z,99.90
2023-01-01T16:11:54.293Z,99.90
2023-01-01T16:14:23.083Z,99.90
2023-01-01T16:16:55.080Z,99.90
2023-01-01T16:19:23.227Z,99.90
2023-01-01T16:21:50.663Z,99.90
2023-01-01T16:24:19.933Z,99.90
2023-01-01T16:26:47.440Z,99.90
2023-01-01T16:29:14.683Z,99.90
2023-01-01T16:31:42.749Z,99.90
2023-01-01T16:34:27.935Z,99.90
2023-01-01T16:36:54.863Z,99.90
2023-01-01T16:39:21.920Z,99.90
2023-01-01T16:41:49.901Z,99.90
2023-01-01T16:44:17.014Z,99.90
2023-01-01T16:46:45.069Z,99.90
2023-01-01T16:49:12.150Z,99.90
2023-01-01T16:54:11.399Z,99.90
2023-01-01T17:01:37.204Z,99.90
2023-01-01T17:13:55.683Z,99.90
2023-01-01T17:16:28.056Z,99.90
2023-01-01T17:21:49.615Z,99.90
2023-01-01T17:29:37.469Z,99.90
2023-01-01T17:35:02.779Z,99.90
2023-01-01T17:37:45.557Z,99.90
2023-01-01T17:40:22.104Z,99.90
2023-01-01T17:45:46.598Z,99.90
2023-01-01T17:48:15.786Z,99.90
2023-01-01T17:50:54.613Z,99.90
2023-01-01T17:56:24.369Z,99.90
2023-01-01T17:58:55.613Z,99.90
2023-01-01T18:01:31.967Z,99.90
2023-01-01T18:07:36.411Z,99.90
2023-01-01T18:10:20.559Z,99.90
2023-01-01T18:17:59.082Z,99.90
2023-01-01T18:20:45.667Z,99.90
2023-01-01T18:24:13.483Z,99.90
2023-01-01T18:27:08.372Z,99.90
2023-01-01T18:34:15.248Z,99.90
2023-01-01T18:39:33.252Z,99.90
2023-01-01T18:42:27.100Z,99.90
2023-01-01T18:45:02.542Z,99.90
2023-01-01T18:50:14.966Z,99.90
2023-01-01T18:52:49.286Z,99.90
2023-01-01T18:55:19.008Z,99.90
2023-01-01T18:57:57.747Z,99.90
2023-01-01T19:00:54.021Z,99.90
2023-01-01T19:03:49.419Z,99.90
2023-01-01T19:06:27.118Z,99.90
2023-01-01T19:09:36.311Z,99.90
2023-01-01T19:12:20.856Z,99.90
2023-01-01T19:15:18.434Z,99.90
2023-01-01T19:17:59.486Z,99.90
2023-01-01T19:20:31.858Z,99.90
2023-01-01T19:23:20.686Z,99.90
2023-01-01T19:30:00.582Z,99.90
2023-01-01T19:32:37.963Z,99.90
2023-01-01T19:35:24.035Z,99.90
2023-01-01T19:38:23.280Z,99.90
2023-01-01T19:41:04.589Z,99.90
2023-01-01T19:44:01.833Z,99.90
2023-01-01T19:46:40.931Z,99.90
2023-01-01T19:53:12.927Z,99.90
2023-01-01T20:00:10.229Z,99.90
2023-01-01T20:02:48.010Z,99.90
2023-01-01T20:05:21.185Z,99.90
2023-01-01T20:07:48.444Z,99.90
2023-01-01T20:10:20.326Z,99.90
2023-01-01T20:12:51.008Z,99.90
2023-01-01T20:15:18.637Z,99.90
2023-01-01T20:17:48.369Z,99.90
2023-01-01T20:20:15.700Z,99.90
2023-01-01T20:22:43.244Z,99.90
2023-01-01T20:25:10.836Z,99.90
2023-01-01T20:28:01.725Z,99.90
2023-01-01T20:30:31.853Z,99.90
2023-01-01T20:38:12.824Z,99.90
2023-01-01T20:40:39.996Z,99.90
2023-01-01T20:45:39.855Z,99.90
2023-01-01T20:48:40.268Z,99.90
2023-01-01T20:58:36.656Z,99.90
2023-01-01T21:01:04.206Z,99.90
2023-01-01T21:05:59.049Z,99.90
2023-01-01T21:08:26.175Z,99.90
2023-01-01T21:10:53.367Z,99.90
2023-01-01T21:13:20.726Z,99.90
2023-01-01T21:21:01.613Z,99.90
2023-01-01T21:23:29.669Z,99.90
2023-01-01T21:25:59.185Z,99.90
2023-01-01T21:28:32.696Z,99.90
2023-01-01T21:31:01.093Z,99.90
2023-01-01T21:33:31.541Z,99.90
2023-01-01T21:36:20.057Z,99.90
2023-01-01T21:38:53.137Z,99.90
2023-01-01T22:03:21.484Z,99.90
2023-01-01T22:06:46.258Z,99.90
2023-01-01T22:10:43.481Z,99.90
2023-01-01T22:13:50.670Z,99.90
2023-01-01T22:16:30.631Z,99.90
2023-01-01T22:19:40.443Z,99.90
2023-01-01T22:22:35.452Z,99.90
2023-01-01T22:25:31.220Z,99.90
2023-01-01T22:28:29.560Z,99.90
2023-01-01T22:37:21.261Z,99.90
2023-01-01T22:40:23.654Z,99.90
2023-01-01T22:42:57.002Z,99.90
2023-01-01T22:49:18.410Z,99.90
2023-01-01T22:56:20.675Z,99.90
2023-01-01T22:58:57.884Z,99.90
2023-01-01T23:01:58.738Z,99.90
2023-01-01T23:04:32.416Z,99.90
2023-01-01T23:07:06.663Z,99.90
2023-01-01T23:09:41.561Z,99.90
2023-01-01T23:12:20.716Z,99.90
2023-01-01T23:28:04.771Z,99.90
2023-01-01T23:45:31.741Z,99.90
2023-01-01T23:48:39.198Z,99.90
2023-01-01T23:51:06.811Z,99.90
2023-01-01T23:53:36.797Z,99.90
